Time;durP1;ratioP1;P1;durP2;ratioP2;P2;SDS_P1;SDS_P2;PMS_P1;PMS_P2;Temp;Humidity;BMP_temperature;BMP_pressure;BME280_temperature;BME280_humidity;BME280_pressure;Samples;Min_cycle;Max_cycle;Signal;HPM_P1;HPM_P2
2021/05/08 00:01:55;;;;;;;4.35;3.65;;;;;;;3.42;100.00;100911.22;3574085;40;20079;-54
2021/05/08 00:04:22;;;;;;;5.88;3.92;;;;;;;3.52;100.00;100910.09;3574027;40;20103;-52
2021/05/08 00:06:48;;;;;;;5.18;3.58;;;;;;;3.55;100.00;100917.84;3574497;40;20089;-55
2021/05/08 00:09:15;;;;;;;6.75;4.20;;;;;;;3.58;100.00;100913.81;3572454;40;20108;-54
2021/05/08 00:11:41;;;;;;;4.53;4.13;;;;;;;3.40;100.00;100911.91;3574056;40;20092;-53
2021/05/08 00:14:08;;;;;;;4.63;3.78;;;;;;;3.25;100.00;100911.88;3574282;40;20064;-55
2021/05/08 00:16:35;;;;;;;4.95;3.92;;;;;;;3.18;100.00;100910.63;3574196;40;20056;-52
2021/05/08 00:19:02;;;;;;;4.90;4.25;;;;;;;3.48;100.00;100911.56;3573677;40;20334;-53
2021/05/08 00:21:29;;;;;;;4.22;3.75;;;;;;;3.48;100.00;100911.56;3573808;40;20483;-55
2021/05/08 00:23:55;;;;;;;5.07;4.00;;;;;;;3.33;100.00;100903.09;3573890;40;20056;-54
2021/05/08 00:26:22;;;;;;;6.47;4.30;;;;;;;3.06;100.00;100915.00;3573657;40;20077;-52
2021/05/08 00:28:48;;;;;;;6.60;4.40;;;;;;;3.16;100.00;100911.34;3574329;40;20088;-56
2021/05/08 00:31:15;;;;;;;7.65;5.00;;;;;;;3.31;100.00;100918.16;3571891;40;20697;-51
2021/05/08 00:33:42;;;;;;;5.78;4.53;;;;;;;3.45;100.00;100928.22;3573946;40;20164;-55
2021/05/08 00:36:09;;;;;;;6.00;4.38;;;;;;;3.39;100.00;100912.69;3573777;40;20093;-54
2021/05/08 00:38:36;;;;;;;7.38;5.28;;;;;;;3.41;100.00;100913.63;3573554;40;20079;-57
2021/05/08 00:41:02;;;;;;;9.43;5.18;;;;;;;3.37;100.00;100917.66;3573974;40;20380;-50
2021/05/08 00:43:29;;;;;;;6.90;5.20;;;;;;;3.29;100.00;100916.34;3574123;40;20094;-52
2021/05/08 00:45:56;;;;;;;6.68;5.25;;;;;;;3.13;100.00;100911.16;3564643;40;20403;-56
2021/05/08 00:48:24;;;;;;;6.82;5.00;;;;;;;3.03;100.00;100917.34;3573340;40;20053;-55
2021/05/08 00:50:52;;;;;;;6.88;5.00;;;;;;;3.12;100.00;100919.53;3573964;40;20055;-52
2021/05/08 00:53:18;;;;;;;5.13;4.63;;;;;;;3.05;100.00;100915.75;3574056;40;20049;-57
2021/05/08 00:55:45;;;;;;;6.88;5.05;;;;;;;3.40;100.00;100920.38;3573813;40;20441;-51
2021/05/08 00:58:12;;;;;;;6.68;5.28;;;;;;;3.46;100.00;100925.78;3573507;40;20427;-54
2021/05/08 01:00:39;;;;;;;6.10;5.00;;;;;;;3.36;100.00;100920.09;3571514;40;20064;-53
2021/05/08 01:03:07;;;;;;;5.68;5.10;;;;;;;3.19;100.00;100925.06;3572825;40;20089;-53
2021/05/08 01:05:36;;;;;;;6.75;5.18;;;;;;;3.39;100.00;100923.69;3574129;40;20053;-53
2021/05/08 01:08:04;;;;;;;6.15;5.45;;;;;;;3.19;100.00;100924.16;3573611;40;20048;-56
2021/05/08 01:10:32;;;;;;;5.90;5.05;;;;;;;3.35;100.00;100926.81;3572643;40;20085;-51
2021/05/08 01:13:00;;;;;;;8.38;5.70;;;;;;;3.31;100.00;100928.28;3573023;40;20085;-52
2021/05/08 01:15:27;;;;;;;6.53;5.20;;;;;;;3.34;100.00;100929.28;3573758;40;20060;-55
2021/05/08 01:17:55;;;;;;;9.45;5.55;;;;;;;3.23;100.00;100924.44;3573561;40;20089;-56
2021/05/08 01:20:22;;;;;;;7.78;5.55;;;;;;;3.19;100.00;100930.13;3574077;40;20496;-54
2021/05/08 01:22:50;;;;;;;8.25;7.00;;;;;;;3.12;100.00;100924.59;3574081;40;20073;-50
2021/05/08 01:25:23;;;;;;;10.77;6.47;;;;;;;3.26;100.00;100931.34;3573493;40;20366;-55
2021/05/08 01:27:52;;;;;;;7.50;5.80;;;;;;;3.19;100.00;100931.75;3573896;40;20060;-49
2021/05/08 01:30:24;;;;;;;8.00;6.32;;;;;;;3.19;100.00;100930.13;3574979;40;20389;-53
2021/05/08 01:32:51;;;;;;;6.43;5.72;;;;;;;2.87;100.00;100919.75;3573971;40;20104;-53
2021/05/08 01:35:18;;;;;;;7.60;5.65;;;;;;;2.99;100.00;100916.28;3574109;40;20053;-56
2021/05/08 01:37:46;;;;;;;7.95;5.50;;;;;;;2.70;100.00;100918.72;3573518;40;20057;-53
2021/05/08 01:40:15;;;;;;;9.13;6.38;;;;;;;3.03;100.00;100923.25;3573816;40;20053;-51
2021/05/08 01:42:44;;;;;;;8.07;6.20;;;;;;;2.86;100.00;100934.03;3573433;40;20450;-53
2021/05/08 01:45:20;;;;;;;6.72;5.90;;;;;;;2.94;100.00;100931.97;3572974;40;20411;-57
2021/05/08 01:47:47;;;;;;;8.55;5.47;;;;;;;2.82;100.00;100924.53;3573028;40;20049;-56
2021/05/08 01:50:16;;;;;;;6.68;5.43;;;;;;;3.09;100.00;100934.53;3573740;40;20120;-52
2021/05/08 01:52:43;;;;;;;8.45;6.32;;;;;;;3.10;100.00;100936.25;3572946;40;20084;-55
2021/05/08 01:55:16;;;;;;;8.85;5.68;;;;;;;2.89;100.00;100935.88;3573432;40;20048;-55
2021/05/08 01:57:48;;;;;;;9.40;5.95;;;;;;;2.94;100.00;100934.50;3572322;40;20055;-50
2021/05/08 02:00:38;;;;;;;7.95;5.80;;;;;;;3.00;100.00;100933.19;3571977;40;20057;-53
2021/05/08 02:03:05;;;;;;;7.78;6.18;;;;;;;2.85;100.00;100939.00;3572362;40;20080;-54
2021/05/08 02:05:34;;;;;;;9.43;6.40;;;;;;;2.73;100.00;100932.44;3573369;40;20442;-56
2021/05/08 02:08:03;;;;;;;7.05;6.05;;;;;;;2.58;100.00;100946.63;3573218;40;20057;-52
2021/05/08 02:10:34;;;;;;;10.35;6.00;;;;;;;2.69;100.00;100943.13;3572886;40;20461;-54
2021/05/08 02:13:06;;;;;;;8.02;5.88;;;;;;;2.36;100.00;100944.47;3572366;40;20052;-53
2021/05/08 02:15:33;;;;;;;8.48;6.50;;;;;;;2.72;100.00;100940.78;3563856;40;20069;-55
2021/05/08 02:17:59;;;;;;;8.30;5.75;;;;;;;2.34;100.00;100947.66;3573083;40;20105;-55
2021/05/08 02:20:28;;;;;;;8.65;5.72;;;;;;;2.71;100.00;100940.69;3573430;40;20169;-55
2021/05/08 02:23:00;;;;;;;6.65;5.90;;;;;;;2.47;100.00;100940.06;3575174;40;20049;-52
2021/05/08 02:25:27;;;;;;;6.57;5.88;;;;;;;2.55;100.00;100943.94;3576943;40;20160;-53
2021/05/08 02:27:54;;;;;;;9.98;6.00;;;;;;;2.42;100.00;100943.97;3576564;40;20109;-55
2021/05/08 02:30:27;;;;;;;7.78;5.93;;;;;;;2.28;100.00;100945.63;3577141;40;20057;-55
2021/05/08 02:32:59;;;;;;;8.73;5.70;;;;;;;2.07;100.00;100944.25;3568083;40;20045;-52
2021/05/08 02:35:27;;;;;;;7.97;6.15;;;;;;;2.74;100.00;100941.75;3575178;40;20053;-56
2021/05/08 02:37:55;;;;;;;10.18;5.88;;;;;;;2.75;100.00;100933.38;3576078;40;20041;-53
2021/05/08 02:40:24;;;;;;;10.30;6.15;;;;;;;2.74;100.00;100935.84;3576578;40;20056;-53
2021/05/08 02:42:51;;;;;;;10.65;6.82;;;;;;;2.35;100.00;100932.56;3576578;40;20059;-51
2021/05/08 02:45:19;;;;;;;7.30;5.85;;;;;;;2.71;100.00;100941.56;3575902;40;20053;-53
2021/05/08 02:47:47;;;;;;;7.50;5.85;;;;;;;2.61;100.00;100948.50;3575742;40;20458;-52
2021/05/08 02:50:16;;;;;;;6.80;5.90;;;;;;;2.62;100.00;100951.09;3575022;40;20170;-56
2021/05/08 02:52:43;;;;;;;11.02;6.95;;;;;;;2.39;100.00;100947.16;3576685;40;20108;-52
2021/05/08 02:55:10;;;;;;;9.32;6.72;;;;;;;2.29;100.00;100940.66;3576562;40;20069;-53
2021/05/08 02:57:37;;;;;;;7.60;5.80;;;;;;;2.14;100.00;100946.41;3576393;40;20064;-53
2021/05/08 03:00:06;;;;;;;8.48;5.90;;;;;;;2.24;100.00;100943.69;3576443;40;20084;-54
2021/05/08 03:02:33;;;;;;;9.32;6.20;;;;;;;2.11;100.00;100948.72;3574776;40;20811;-52
2021/05/08 03:05:00;;;;;;;8.45;6.32;;;;;;;2.23;100.00;100947.00;3575497;40;20126;-56
2021/05/08 03:07:27;;;;;;;8.57;6.22;;;;;;;2.20;100.00;100950.19;3575680;40;20072;-52
2021/05/08 03:09:54;;;;;;;13.10;7.13;;;;;;;2.27;100.00;100951.47;3576369;40;20068;-50
2021/05/08 03:12:21;;;;;;;7.00;6.20;;;;;;;2.46;100.00;100950.97;3559395;40;20060;-51
2021/05/08 03:14:48;;;;;;;7.90;5.95;;;;;;;2.34;100.00;100957.75;3575840;40;20413;-54
2021/05/08 03:17:15;;;;;;;9.85;6.93;;;;;;;2.52;100.00;100949.66;3574336;40;20381;-57
2021/05/08 03:19:42;;;;;;;10.13;6.85;;;;;;;2.57;100.00;100952.47;3566773;40;20048;-56
2021/05/08 03:22:08;;;;;;;10.23;7.65;;;;;;;2.47;100.00;100953.56;3576015;40;20089;-56
2021/05/08 03:24:35;;;;;;;10.00;6.75;;;;;;;2.51;100.00;100957.16;3575908;40;20237;-53
2021/05/08 03:27:02;;;;;;;7.30;6.18;;;;;;;2.51;100.00;100965.63;3575702;40;20103;-51
2021/05/08 03:29:28;;;;;;;9.30;6.85;;;;;;;2.53;100.00;100951.41;3575868;40;20448;-53
2021/05/08 03:31:55;;;;;;;11.98;6.80;;;;;;;2.28;100.00;100958.25;3575767;40;20056;-52
2021/05/08 03:34:23;;;;;;;9.10;7.18;;;;;;;2.34;100.00;100960.28;3574391;40;20616;-52
2021/05/08 03:36:49;;;;;;;8.57;6.03;;;;;;;2.41;100.00;100954.84;3574167;40;20422;-50
2021/05/08 03:39:16;;;;;;;10.43;6.40;;;;;;;2.40;100.00;100958.13;3574728;40;20052;-52
2021/05/08 03:41:43;;;;;;;10.85;6.85;;;;;;;2.51;100.00;100964.75;3574584;40;20088;-54
2021/05/08 03:44:10;;;;;;;10.02;6.15;;;;;;;2.48;100.00;100962.91;3574250;40;20056;-53
2021/05/08 03:46:36;;;;;;;8.70;6.47;;;;;;;2.56;100.00;100970.97;3574695;40;20432;-47
2021/05/08 03:49:04;;;;;;;8.55;6.45;;;;;;;2.66;100.00;100977.47;3574071;40;20055;-51
2021/05/08 03:51:31;;;;;;;11.55;7.32;;;;;;;2.74;99.98;100974.63;3573966;40;20065;-51
2021/05/08 03:53:58;;;;;;;14.10;7.93;;;;;;;2.70;100.00;100974.34;3574307;40;20252;-46
2021/05/08 03:56:24;;;;;;;8.27;7.10;;;;;;;2.86;100.00;100986.25;3574474;40;20433;-46
2021/05/08 03:58:52;;;;;;;24.10;16.02;;;;;;;2.81;99.13;100981.78;3574393;40;20052;-51
2021/05/08 04:01:18;;;;;;;21.58;14.45;;;;;;;3.03;100.00;100989.03;3574548;40;20037;-48
2021/05/08 04:03:45;;;;;;;14.65;10.23;;;;;;;3.01;99.67;100990.63;3574678;40;20072;-47
2021/05/08 04:06:12;;;;;;;16.13;10.52;;;;;;;3.12;99.74;100993.78;3567490;40;20195;-51
2021/05/08 04:08:39;;;;;;;15.45;9.45;;;;;;;3.27;99.00;100998.88;3573153;40;20513;-46
2021/05/08 04:11:06;;;;;;;10.20;8.55;;;;;;;3.08;99.85;100993.50;3574140;40;20434;-56
2021/05/08 04:13:32;;;;;;;8.57;7.05;;;;;;;3.22;99.19;101007.84;3573719;40;20439;-52
2021/05/08 04:15:59;;;;;;;8.20;5.93;;;;;;;3.50;97.28;101005.31;3572930;40;20403;-53
2021/05/08 04:18:30;;;;;;;9.80;5.95;;;;;;;3.58;97.30;101009.16;3574415;40;20057;-50
2021/05/08 04:20:57;;;;;;;7.57;5.93;;;;;;;3.64;96.32;101011.19;3574219;40;20065;-53
2021/05/08 04:23:24;;;;;;;7.13;5.32;;;;;;;3.30;97.87;101012.59;3573840;40;20064;-50
2021/05/08 04:25:50;;;;;;;8.70;7.20;;;;;;;3.60;97.92;101011.78;3573833;40;20045;-50
2021/05/08 04:28:17;;;;;;;7.88;6.68;;;;;;;3.69;96.55;101009.78;3573685;40;20088;-52
2021/05/08 04:30:44;;;;;;;8.05;6.00;;;;;;;3.94;95.46;101007.03;3565251;40;20048;-51
2021/05/08 04:33:21;;;;;;;7.40;6.35;;;;;;;4.05;94.53;101016.97;3572603;40;20059;-47
2021/05/08 04:35:48;;;;;;;7.45;5.60;;;;;;;3.92;93.94;101011.13;3573781;40;20842;-49
2021/05/08 04:38:14;;;;;;;6.85;5.60;;;;;;;3.88;93.75;101020.19;3572124;40;20165;-54
2021/05/08 04:40:41;;;;;;;10.38;6.18;;;;;;;3.99;94.33;101010.69;3574294;40;20045;-54
2021/05/08 04:43:09;;;;;;;8.68;5.80;;;;;;;4.04;93.39;101020.31;3573343;40;20362;-52
2021/05/08 04:45:36;;;;;;;8.77;5.70;;;;;;;4.13;94.03;101026.69;3572781;40;20407;-48
2021/05/08 04:48:02;;;;;;;6.75;5.47;;;;;;;4.04;93.80;101032.09;3573830;40;20064;-49
2021/05/08 04:50:29;;;;;;;7.55;5.95;;;;;;;4.20;92.92;101024.56;3573761;40;20065;-52
2021/05/08 04:52:56;;;;;;;7.35;4.95;;;;;;;4.42;91.98;101026.66;3573522;40;20065;-48
2021/05/08 04:55:22;;;;;;;7.53;5.93;;;;;;;4.33;92.60;101034.63;3574389;40;20442;-49
2021/05/08 04:57:49;;;;;;;8.88;6.45;;;;;;;4.52;92.46;101039.03;3573592;40;20053;-51
2021/05/08 05:00:18;;;;;;;8.00;7.20;;;;;;;4.33;92.27;101028.66;3565011;40;20053;-55
2021/05/08 05:02:46;;;;;;;7.50;5.60;;;;;;;4.16;95.25;101029.38;3573451;40;20061;-57
2021/05/08 05:05:18;;;;;;;8.95;5.78;;;;;;;4.39;93.83;101029.03;3572356;40;20434;-57
2021/05/08 05:07:45;;;;;;;7.40;6.75;;;;;;;4.46;91.25;101032.78;3574135;40;20057;-51
2021/05/08 05:10:12;;;;;;;12.57;7.28;;;;;;;4.71;91.13;101040.94;3574343;40;20064;-52
2021/05/08 05:12:39;;;;;;;8.02;7.22;;;;;;;4.97;89.99;101038.94;3557917;40;20083;-52
2021/05/08 05:15:09;;;;;;;8.77;6.30;;;;;;;4.98;91.09;101041.56;3573958;40;20276;-56
2021/05/08 05:17:36;;;;;;;6.05;4.70;;;;;;;5.21;89.14;101045.31;3573607;40;20084;-53
2021/05/08 05:20:04;;;;;;;7.82;5.18;;;;;;;4.94;90.25;101039.63;3573588;40;20352;-53
2021/05/08 05:22:31;;;;;;;6.53;4.97;;;;;;;4.85;91.31;101042.56;3574044;40;20326;-50
2021/05/08 05:24:58;;;;;;;6.55;4.93;;;;;;;4.98;90.63;101048.28;3572664;40;20041;-50
2021/05/08 05:27:24;;;;;;;8.02;5.05;;;;;;;4.91;91.40;101052.19;3574285;40;20053;-50
2021/05/08 05:29:52;;;;;;;6.10;5.15;;;;;;;4.89;92.01;101055.41;3574037;40;20109;-50
2021/05/08 05:32:19;;;;;;;6.00;5.20;;;;;;;5.30;89.87;101055.94;3573805;40;20088;-53
2021/05/08 05:34:45;;;;;;;8.40;4.65;;;;;;;5.20;88.75;101052.84;3559738;40;20045;-52
2021/05/08 05:37:12;;;;;;;9.82;5.28;;;;;;;5.48;88.39;101058.59;3572770;40;20048;-47
2021/05/08 05:39:38;;;;;;;8.57;6.30;;;;;;;5.53;88.34;101052.06;3572332;40;20045;-55
2021/05/08 05:42:05;;;;;;;7.15;5.97;;;;;;;5.55;88.03;101060.66;3572280;40;20116;-54
2021/05/08 05:44:32;;;;;;;9.98;5.85;;;;;;;5.50;87.73;101064.63;3573375;40;20063;-51
2021/05/08 05:46:58;;;;;;;5.47;4.82;;;;;;;5.53;89.64;101067.31;3572157;40;20720;-55
2021/05/08 05:49:25;;;;;;;8.40;5.15;;;;;;;5.76;88.07;101073.59;3573385;40;20052;-57
2021/05/08 05:51:52;;;;;;;7.05;4.40;;;;;;;6.11;87.63;101072.00;3573373;40;20069;-55
2021/05/08 05:54:20;;;;;;;5.05;4.55;;;;;;;5.85;86.91;101068.97;3573959;40;20563;-53
2021/05/08 05:56:47;;;;;;;6.50;4.78;;;;;;;6.19;88.94;101072.34;3571180;40;20061;-55
2021/05/08 05:59:14;;;;;;;7.43;5.28;;;;;;;6.10;90.00;101078.75;3572169;40;20213;-51
2021/05/08 06:01:41;;;;;;;5.90;4.90;;;;;;;6.54;87.46;101084.25;3573268;40;20052;-55
2021/05/08 06:04:07;;;;;;;7.00;6.30;;;;;;;6.47;87.36;101083.09;3574377;40;20102;-52
2021/05/08 06:06:34;;;;;;;6.45;5.80;;;;;;;6.60;85.08;101082.00;3572858;40;20064;-51
2021/05/08 06:09:02;;;;;;;6.78;4.53;;;;;;;6.64;86.30;101083.88;3573180;40;20053;-50
2021/05/08 06:11:29;;;;;;;5.65;4.10;;;;;;;6.71;86.00;101080.84;3571669;40;20052;-49
2021/05/08 06:13:55;;;;;;;6.53;4.28;;;;;;;6.84;85.70;101084.81;3572821;40;20089;-53
2021/05/08 06:16:22;;;;;;;5.10;4.35;;;;;;;6.74;85.48;101085.19;3572005;40;20052;-55
2021/05/08 06:18:51;;;;;;;5.57;4.05;;;;;;;7.06;83.03;101087.56;3572076;40;20036;-48
2021/05/08 06:21:18;;;;;;;6.20;4.43;;;;;;;7.20;84.19;101090.75;3575259;40;20049;-49
2021/05/08 06:23:44;;;;;;;11.55;3.88;;;;;;;7.49;80.77;101091.19;3565329;40;20168;-52
2021/05/08 06:26:11;;;;;;;5.22;3.92;;;;;;;7.59;80.29;101090.81;3572092;40;20053;-49
2021/05/08 06:28:37;;;;;;;5.82;3.58;;;;;;;7.52;80.96;101091.31;3575855;40;20077;-50
2021/05/08 06:31:04;;;;;;;5.88;3.50;;;;;;;7.55;81.80;101084.69;3565655;40;20229;-49
2021/05/08 06:33:31;;;;;;;5.65;3.67;;;;;;;7.97;79.80;101086.47;3567879;40;20520;-50
2021/05/08 06:35:57;;;;;;;4.50;3.78;;;;;;;8.28;80.69;101081.84;3573696;40;20065;-54
2021/05/08 06:38:24;;;;;;;8.85;3.70;;;;;;;8.50;77.58;101093.81;3573516;40;20093;-54
2021/05/08 06:40:50;;;;;;;10.00;3.50;;;;;;;8.30;77.63;101089.56;3574295;40;20617;-56
2021/05/08 06:43:17;;;;;;;4.32;2.72;;;;;;;8.62;74.55;101093.47;3563658;40;20059;-54
2021/05/08 06:45:43;;;;;;;6.15;2.80;;;;;;;9.02;75.24;101095.91;3572835;40;20087;-56
2021/05/08 06:48:10;;;;;;;6.10;2.60;;;;;;;9.18;72.06;101095.66;3573480;40;20079;-56
2021/05/08 06:50:37;;;;;;;4.55;2.05;;;;;;;9.39;68.73;101093.03;3572373;40;20355;-56
2021/05/08 06:53:03;;;;;;;7.28;2.20;;;;;;;9.40;68.63;101105.00;3573020;40;20057;-53
2021/05/08 06:55:30;;;;;;;5.97;2.30;;;;;;;9.17;69.76;101101.59;3572956;40;20317;-51
2021/05/08 06:57:57;;;;;;;5.22;2.38;;;;;;;9.70;71.66;101107.78;3572722;40;20071;-52
2021/05/08 07:00:24;;;;;;;4.78;2.15;;;;;;;9.35;69.49;101103.09;3572707;40;20053;-51
2021/05/08 07:02:51;;;;;;;7.75;2.55;;;;;;;9.35;69.30;101101.41;3573231;40;20052;-55
2021/05/08 07:05:18;;;;;;;6.18;3.15;;;;;;;9.52;72.64;101108.81;3572622;40;20065;-54
2021/05/08 07:07:45;;;;;;;7.32;2.55;;;;;;;10.00;68.41;101109.69;3572540;40;20048;-50
2021/05/08 07:10:11;;;;;;;10.07;2.80;;;;;;;9.89;68.70;101105.88;3574123;40;20350;-55
2021/05/08 07:12:39;;;;;;;4.03;2.42;;;;;;;10.09;67.57;101106.59;3574082;40;20030;-54
2021/05/08 07:15:06;;;;;;;6.25;2.78;;;;;;;9.90;64.68;101105.09;3574168;40;20387;-57
2021/05/08 07:17:33;;;;;;;5.72;2.90;;;;;;;10.48;65.46;101104.50;3573641;40;20429;-54
2021/05/08 07:20:00;;;;;;;4.85;2.58;;;;;;;10.70;64.68;101111.19;3564896;40;20068;-53
2021/05/08 07:22:27;;;;;;;5.13;2.20;;;;;;;10.56;63.60;101103.06;3573403;40;20057;-53
2021/05/08 07:24:55;;;;;;;4.65;2.10;;;;;;;10.89;63.36;101107.53;3574528;40;20562;-57
2021/05/08 07:27:21;;;;;;;5.05;2.50;;;;;;;10.78;62.50;101098.66;3573907;40;20068;-56
2021/05/08 07:29:49;;;;;;;5.53;2.22;;;;;;;10.79;65.13;101102.94;3573829;40;20060;-54
2021/05/08 07:32:15;;;;;;;6.90;2.50;;;;;;;10.76;65.08;101096.00;3571911;40;20055;-52
2021/05/08 07:34:42;;;;;;;2.45;2.17;;;;;;;10.64;65.56;101103.34;3574120;40;20056;-53
2021/05/08 07:37:09;;;;;;;5.03;2.47;;;;;;;10.19;65.47;101100.97;3573705;40;20052;-56
2021/05/08 07:39:35;;;;;;;3.25;2.50;;;;;;;9.98;63.98;101103.63;3573221;40;20064;-56
2021/05/08 07:42:02;;;;;;;6.13;2.75;;;;;;;10.23;66.29;101102.81;3574335;40;20049;-57
2021/05/08 07:44:29;;;;;;;4.97;2.70;;;;;;;10.28;68.15;101098.75;3574321;40;20061;-58
2021/05/08 07:46:56;;;;;;;5.55;2.20;;;;;;;10.39;66.24;101102.50;3574089;40;20123;-51
2021/05/08 07:49:23;;;;;;;6.32;2.38;;;;;;;10.45;66.22;101099.31;3574624;40;20053;-55
2021/05/08 07:51:49;;;;;;;4.45;2.50;;;;;;;10.54;64.60;101091.94;3574024;40;20072;-53
2021/05/08 07:54:16;;;;;;;4.85;2.40;;;;;;;11.03;63.67;101097.69;3572756;40;20061;-56
2021/05/08 07:56:42;;;;;;;7.60;2.30;;;;;;;11.37;62.99;101099.56;3573988;40;20399;-56
2021/05/08 07:59:09;;;;;;;4.25;2.38;;;;;;;11.38;59.31;101103.88;3576178;39;20056;-50
2021/05/08 08:01:36;;;;;;;4.82;2.75;;;;;;;11.29;60.19;101095.91;3574314;40;20139;-58
2021/05/08 08:04:03;;;;;;;5.97;2.53;;;;;;;11.27;57.69;101097.53;3571363;40;20049;-59
2021/05/08 08:06:30;;;;;;;5.68;2.42;;;;;;;11.16;59.26;101102.38;3574105;40;20331;-57
2021/05/08 08:08:56;;;;;;;4.25;2.97;;;;;;;11.18;59.13;101099.03;3575226;40;20049;-59
2021/05/08 08:11:23;;;;;;;5.68;2.65;;;;;;;11.33;59.24;101110.56;3577603;40;20417;-56
2021/05/08 08:13:49;;;;;;;3.75;2.40;;;;;;;11.74;57.39;101116.88;3576900;40;20041;-57
2021/05/08 08:16:16;;;;;;;5.35;2.92;;;;;;;12.24;56.25;101112.22;3568250;40;20090;-54
2021/05/08 08:18:43;;;;;;;4.07;2.70;;;;;;;12.09;54.42;101112.72;3581464;40;20088;-57
2021/05/08 08:21:09;;;;;;;5.28;3.05;;;;;;;11.99;54.26;101118.44;3582350;40;20056;-58
2021/05/08 08:23:36;;;;;;;4.85;3.22;;;;;;;11.78;57.21;101116.09;3582921;40;20477;-57
2021/05/08 08:26:03;;;;;;;4.47;2.63;;;;;;;13.18;51.43;101121.34;3582779;40;20056;-55
2021/05/08 08:28:29;;;;;;;4.57;2.55;;;;;;;13.32;49.67;101115.66;3583077;40;20402;-57
2021/05/08 08:30:56;;;;;;;5.85;2.63;;;;;;;13.42;48.85;101126.19;3577732;40;20049;-57
2021/05/08 08:33:23;;;;;;;5.32;3.10;;;;;;;13.24;46.84;101115.50;3574862;40;20426;-57
2021/05/08 08:35:50;;;;;;;5.00;2.78;;;;;;;13.69;49.65;101120.72;3576437;40;20093;-57
2021/05/08 08:38:18;;;;;;;5.85;2.85;;;;;;;14.48;49.94;101121.34;3576504;40;20068;-57
2021/05/08 08:40:46;;;;;;;3.85;2.35;;;;;;;13.93;46.47;101125.47;3577684;40;20096;-52
2021/05/08 08:43:13;;;;;;;5.78;2.65;;;;;;;13.36;48.57;101118.34;3580358;40;20088;-57
2021/05/08 08:45:43;;;;;;;4.57;2.63;;;;;;;12.91;49.22;101123.28;3575601;40;20092;-51
2021/05/08 08:48:10;;;;;;;4.07;2.58;;;;;;;12.69;50.19;101116.78;3577051;40;20056;-57
2021/05/08 08:50:37;;;;;;;3.00;2.70;;;;;;;12.72;49.14;101122.00;3578566;40;20389;-57
2021/05/08 08:53:05;;;;;;;6.35;2.67;;;;;;;13.33;50.80;101117.41;3574677;40;20052;-60
2021/05/08 08:55:33;;;;;;;4.95;2.40;;;;;;;13.30;50.33;101123.34;3572862;40;20071;-58
2021/05/08 08:58:03;;;;;;;6.18;2.78;;;;;;;13.99;47.23;101123.00;3572427;40;20064;-57
2021/05/08 09:00:30;;;;;;;5.65;2.47;;;;;;;13.94;48.40;101124.63;3579727;40;20056;-57
2021/05/08 09:02:57;;;;;;;3.83;2.80;;;;;;;13.47;49.47;101122.00;3574874;40;20042;-56
2021/05/08 09:05:26;;;;;;;4.95;2.88;;;;;;;14.24;45.08;101111.47;3577107;40;20044;-59
2021/05/08 09:07:58;;;;;;;4.25;2.70;;;;;;;14.05;46.64;101122.28;3577142;40;20470;-58
2021/05/08 09:10:26;;;;;;;4.00;2.40;;;;;;;14.03;46.73;101118.78;3572039;40;20164;-59
2021/05/08 09:12:54;;;;;;;7.50;2.75;;;;;;;13.76;47.98;101114.84;3576419;40;20387;-53
2021/05/08 09:15:34;;;;;;;4.10;2.70;;;;;;;14.21;48.60;101116.53;3576709;40;20341;-52
2021/05/08 09:18:01;;;;;;;6.80;2.75;;;;;;;14.50;45.33;101117.06;3575057;40;20042;-57
2021/05/08 09:20:45;;;;;;;6.65;2.53;;;;;;;14.74;45.30;101113.13;3575882;40;20049;-52
2021/05/08 09:23:19;;;;;;;7.45;3.03;;;;;;;14.48;44.74;101121.34;3576826;40;20183;-55
2021/05/08 09:25:56;;;;;;;4.63;2.60;;;;;;;14.44;43.09;101123.81;3575824;40;20068;-54
2021/05/08 09:28:29;;;;;;;3.17;2.05;;;;;;;14.46;44.98;101117.81;3570525;40;20416;-57
2021/05/08 09:30:59;;;;;;;3.15;2.50;;;;;;;13.02;44.92;101106.41;3575910;40;20139;-57
2021/05/08 09:33:28;;;;;;;5.40;2.25;;;;;;;13.82;45.93;101111.53;3571609;40;20115;-54
2021/05/08 09:36:02;;;;;;;3.75;2.80;;;;;;;13.72;47.29;101123.34;3575044;40;20061;-59
2021/05/08 09:38:42;;;;;;;4.95;2.55;;;;;;;13.92;46.99;101107.44;3573875;40;20033;-56
2021/05/08 09:41:14;;;;;;;4.82;2.70;;;;;;;14.12;47.83;101110.38;3576880;40;20050;-58
2021/05/08 09:43:43;;;;;;;5.10;3.00;;;;;;;14.29;45.96;101108.97;3576376;40;20065;-59
2021/05/08 09:46:24;;;;;;;3.35;2.70;;;;;;;14.68;42.04;101101.03;3572673;40;20055;-55
2021/05/08 09:49:09;;;;;;;4.20;2.47;;;;;;;15.53;41.96;101106.50;3573202;40;20197;-53
2021/05/08 09:51:36;;;;;;;3.78;2.30;;;;;;;16.87;39.42;101108.69;3574384;40;20037;-52
2021/05/08 09:54:03;;;;;;;3.80;2.15;;;;;;;17.26;34.79;101105.44;3573471;40;20053;-49
2021/05/08 09:56:37;;;;;;;1.95;1.73;;;;;;;17.36;36.59;101101.19;3574535;40;20411;-55
2021/05/08 09:59:34;;;;;;;4.13;2.53;;;;;;;19.94;34.67;101107.09;3564401;40;20045;-53
2021/05/08 10:02:06;;;;;;;3.17;2.05;;;;;;;19.21;33.18;101108.28;3572473;40;20270;-51
2021/05/08 10:04:49;;;;;;;1.70;1.60;;;;;;;18.45;35.47;101097.13;3573069;40;20060;-55
2021/05/08 10:07:17;;;;;;;3.17;1.98;;;;;;;20.13;32.69;101098.31;3572599;40;20069;-53
2021/05/08 10:09:45;;;;;;;3.00;1.85;;;;;;;19.45;35.12;101102.13;3575608;40;20351;-55
2021/05/08 10:12:19;;;;;;;3.05;2.25;;;;;;;20.24;31.94;101104.28;3573548;40;20077;-54
2021/05/08 10:14:48;;;;;;;2.30;1.90;;;;;;;22.71;31.19;101107.34;3572685;40;20610;-51
2021/05/08 10:17:26;;;;;;;3.78;2.17;;;;;;;23.37;26.99;101098.25;3561466;40;20529;-56
2021/05/08 10:20:05;;;;;;;3.85;2.40;;;;;;;24.77;25.95;101099.34;3572398;40;20049;-58
2021/05/08 10:22:35;;;;;;;;;;;;;;;26.13;25.68;101105.91;3573203;40;20049;-56
2021/05/08 10:25:05;;;;;;;2.38;1.83;;;;;;;27.11;24.63;101102.59;3575444;40;19941;-55
2021/05/08 10:27:32;;;;;;;4.28;2.25;;;;;;;27.05;22.51;101105.41;3565447;40;20060;-57
2021/05/08 10:29:59;;;;;;;5.07;2.10;;;;;;;22.86;25.74;101100.97;3572589;40;20057;-53
2021/05/08 10:32:26;;;;;;;3.97;1.88;;;;;;;18.54;31.93;101085.91;3573198;40;20076;-55
2021/05/08 10:34:58;;;;;;;2.30;2.08;;;;;;;21.75;28.67;101095.78;3574078;40;20056;-53
2021/05/08 10:37:27;;;;;;;3.17;1.90;;;;;;;25.46;25.33;101107.94;3563753;40;20134;-51
2021/05/08 10:40:03;;;;;;;5.03;1.98;;;;;;;26.51;24.50;101093.31;3573406;40;20049;-54
2021/05/08 10:42:35;;;;;;;2.47;2.13;;;;;;;24.59;24.93;101092.88;3573658;40;20097;-58
2021/05/08 10:45:22;;;;;;;4.18;2.33;;;;;;;23.05;28.04;101093.69;3573252;40;20049;-56
2021/05/08 10:47:55;;;;;;;3.00;1.77;;;;;;;26.04;24.92;101100.94;3573163;40;20085;-54
2021/05/08 10:50:37;;;;;;;3.95;2.15;;;;;;;26.28;24.09;101093.19;3572603;40;20059;-53
2021/05/08 10:53:14;;;;;;;4.43;2.03;;;;;;;27.63;23.39;101098.00;3573423;40;20044;-53
2021/05/08 10:55:51;;;;;;;3.35;1.45;;;;;;;24.87;24.95;101087.75;3573053;40;20068;-55
2021/05/08 10:58:21;;;;;;;3.25;1.92;;;;;;;23.27;27.13;101083.69;3573486;40;20048;-56
2021/05/08 11:00:58;;;;;;;3.78;2.13;;;;;;;22.78;27.15;101085.44;3573415;40;20069;-58
2021/05/08 11:03:52;;;;;;;5.15;1.95;;;;;;;19.58;31.31;101077.81;3573684;40;20062;-55
2021/05/08 11:06:19;;;;;;;3.78;2.22;;;;;;;23.45;27.34;101085.91;3561452;40;20052;-61
2021/05/08 11:08:52;;;;;;;2.58;2.13;;;;;;;25.00;27.33;101084.78;3575610;40;20416;-55
2021/05/08 11:11:40;;;;;;;2.53;2.30;;;;;;;24.18;25.16;101079.94;3570969;40;20065;-58
2021/05/08 11:14:10;;;;;;;3.20;2.13;;;;;;;27.24;20.87;101096.88;3573962;40;20041;-54
2021/05/08 11:16:53;;;;;;;2.33;2.03;;;;;;;26.34;20.90;101080.69;3574740;40;20041;-59
2021/05/08 11:19:22;;;;;;;4.32;2.30;;;;;;;24.92;22.99;101071.06;3573118;40;20063;-53
2021/05/08 11:21:49;;;;;;;3.72;1.80;;;;;;;25.94;23.18;101070.66;3573499;40;20088;-53
2021/05/08 11:24:33;;;;;;;2.55;2.20;;;;;;;25.79;23.91;101064.16;3572852;40;20056;-53
2021/05/08 11:27:00;;;;;;;2.50;1.90;;;;;;;28.60;21.65;101076.50;3573775;40;20053;-54
2021/05/08 11:29:30;;;;;;;5.70;2.50;;;;;;;29.17;19.53;101077.53;3564430;40;20089;-58
2021/05/08 11:32:06;;;;;;;3.05;2.20;;;;;;;23.82;22.80;101065.06;3574321;40;20055;-52
2021/05/08 11:34:34;;;;;;;2.75;2.00;;;;;;;25.71;22.02;101068.72;3574448;40;20403;-54